createdAt,value
2019-01-27T00:02:23.012Z,59.40
2019-01-27T00:04:51.453Z,54.18
2019-01-27T00:07:19.819Z,58.48
2019-01-27T00:09:48.272Z,53.73
2019-01-27T00:12:16.718Z,47.48
2019-01-27T00:14:45.100Z,49.60
2019-01-27T00:17:13.547Z,51.40
2019-01-27T00:19:41.902Z,48.00
2019-01-27T00:22:10.246Z,51.50
2019-01-27T00:24:38.721Z,53.10
2019-01-27T00:27:07.128Z,50.12
2019-01-27T00:29:35.501Z,48.08
2019-01-27T00:32:04.184Z,49.00
2019-01-27T00:34:32.537Z,48.80
2019-01-27T00:37:01.088Z,47.78
2019-01-27T00:39:29.429Z,50.60
2019-01-27T00:41:57.803Z,45.12
2019-01-27T00:44:26.248Z,52.88
2019-01-27T00:46:56.150Z,53.87
2019-01-27T00:49:24.999Z,58.80
2019-01-27T00:51:53.362Z,59.83
2019-01-27T00:54:22.404Z,48.45
2019-01-27T00:56:50.785Z,51.80
2019-01-27T00:59:26.304Z,49.65
2019-01-27T01:01:54.777Z,59.40
2019-01-27T01:04:23.215Z,49.03
2019-01-27T01:06:51.682Z,46.68
2019-01-27T01:09:20.029Z,44.33
2019-01-27T01:11:49.801Z,43.73
2019-01-27T01:14:19.256Z,50.43
2019-01-27T01:16:48.459Z,46.45
2019-01-27T01:19:16.798Z,40.63
2019-01-27T01:21:45.268Z,44.00
2019-01-27T01:24:13.726Z,43.95
2019-01-27T01:26:42.287Z,45.70
2019-01-27T01:29:10.624Z,39.80
2019-01-27T01:31:39.108Z,41.73
2019-01-27T01:34:07.555Z,40.00
2019-01-27T01:36:36.108Z,41.85
2019-01-27T01:39:07.700Z,48.25
2019-01-27T01:41:36.067Z,42.15
2019-01-27T01:44:04.770Z,45.50
2019-01-27T01:46:33.421Z,40.63
2019-01-27T01:49:01.770Z,48.00
2019-01-27T01:51:30.133Z,50.90
2019-01-27T01:53:58.587Z,48.33
2019-01-27T01:56:27.029Z,45.88
2019-01-27T01:58:55.373Z,41.15
2019-01-27T02:01:25.048Z,44.67
2019-01-27T02:03:53.410Z,41.68
2019-01-27T02:06:21.983Z,44.33
2019-01-27T02:08:50.432Z,44.20
2019-01-27T02:11:18.789Z,39.42
2019-01-27T02:13:47.154Z,46.88
2019-01-27T02:16:15.687Z,43.25
2019-01-27T02:18:44.163Z,49.23
2019-01-27T02:21:12.519Z,43.17
2019-01-27T02:23:40.981Z,44.45
2019-01-27T02:26:10.224Z,39.58
2019-01-27T02:28:38.688Z,50.17
2019-01-27T02:31:07.139Z,48.75
2019-01-27T02:33:35.692Z,41.65
2019-01-27T02:36:04.416Z,49.75
2019-01-27T02:38:32.772Z,42.75
2019-01-27T02:41:01.140Z,39.35
2019-01-27T02:43:29.592Z,45.12
2019-01-27T02:45:58.032Z,36.90
2019-01-27T02:48:26.501Z,40.17
2019-01-27T02:50:54.938Z,41.33
2019-01-27T02:53:23.306Z,37.42
2019-01-27T02:55:51.751Z,40.55
2019-01-27T02:58:20.218Z,41.33
2019-01-27T03:00:48.642Z,40.00
2019-01-27T03:03:37.103Z,37.83
2019-01-27T03:06:44.035Z,37.90
2019-01-27T03:09:24.516Z,38.58
2019-01-27T03:11:53.668Z,40.52
2019-01-27T03:14:22.045Z,37.80
2019-01-27T03:16:53.219Z,46.02
2019-01-27T03:19:21.886Z,38.83
2019-01-27T03:21:50.227Z,38.00
2019-01-27T03:24:18.677Z,40.00
2019-01-27T03:26:47.160Z,41.58
2019-01-27T03:29:15.928Z,37.83
2019-01-27T03:31:44.384Z,40.43
2019-01-27T03:34:12.748Z,41.25
2019-01-27T03:36:41.280Z,40.35
2019-01-27T03:39:11.294Z,41.30
2019-01-27T03:41:39.757Z,47.85
2019-01-27T03:44:08.257Z,37.83
2019-01-27T03:46:36.657Z,41.50
2019-01-27T03:49:06.508Z,39.48
2019-01-27T03:51:35.056Z,39.95
2019-01-27T03:54:05.112Z,36.83
2019-01-27T03:56:33.794Z,43.73
2019-01-27T03:59:02.603Z,37.98
2019-01-27T04:01:30.956Z,44.60
2019-01-27T04:03:59.340Z,41.92
2019-01-27T04:06:29.549Z,51.80
2019-01-27T04:08:57.922Z,41.80
2019-01-27T04:11:28.487Z,47.03
2019-01-27T04:13:56.971Z,37.00
2019-01-27T04:16:25.378Z,53.98
2019-01-27T04:18:53.846Z,42.98
2019-01-27T04:21:22.177Z,45.98
2019-01-27T04:23:52.337Z,41.48
2019-01-27T04:26:20.794Z,35.45
2019-01-27T04:28:49.464Z,42.45
2019-01-27T04:31:19.200Z,39.90
2019-01-27T04:33:47.571Z,39.20
2019-01-27T04:36:16.001Z,41.05
2019-01-27T04:38:44.572Z,41.00
2019-01-27T04:41:14.129Z,43.15
2019-01-27T04:43:42.478Z,37.25
2019-01-27T04:46:11.030Z,40.08
2019-01-27T04:48:39.375Z,43.38
2019-01-27T04:51:07.735Z,40.10
2019-01-27T04:53:36.098Z,37.10
2019-01-27T04:56:04.827Z,42.50
2019-01-27T04:58:34.273Z,42.90
2019-01-27T05:01:03.051Z,41.55
2019-01-27T05:03:49.899Z,41.50
2019-01-27T05:06:19.730Z,37.88
2019-01-27T05:08:48.357Z,39.18
2019-01-27T05:11:16.830Z,39.27
2019-01-27T05:13:45.188Z,40.08
2019-01-27T05:16:13.670Z,35.52
2019-01-27T05:18:42.024Z,34.50
2019-01-27T05:21:10.387Z,32.93
2019-01-27T05:23:40.553Z,39.40
2019-01-27T05:26:09.132Z,30.45
2019-01-27T05:28:37.669Z,31.42
2019-01-27T05:31:06.016Z,30.35
2019-01-27T05:33:35.883Z,38.45
2019-01-27T05:36:04.572Z,34.65
2019-01-27T05:38:33.053Z,38.80
2019-01-27T05:41:01.617Z,40.35
2019-01-27T05:43:30.004Z,38.23
2019-01-27T05:45:58.458Z,48.42
2019-01-27T05:48:26.911Z,44.03
2019-01-27T05:50:55.354Z,39.10
2019-01-27T05:53:23.827Z,40.30
2019-01-27T05:55:52.175Z,39.00
2019-01-27T05:58:20.639Z,39.73
2019-01-27T06:00:49.297Z,40.15
2019-01-27T06:03:17.858Z,41.13
2019-01-27T06:05:46.462Z,37.00
2019-01-27T06:08:15.037Z,40.35
2019-01-27T06:10:43.389Z,42.33
2019-01-27T06:13:11.843Z,34.38
2019-01-27T06:15:40.393Z,36.03
2019-01-27T06:18:08.849Z,44.27
2019-01-27T06:20:37.241Z,38.50
2019-01-27T06:23:05.606Z,45.50
2019-01-27T06:25:35.844Z,45.12
2019-01-27T06:28:04.298Z,43.58
2019-01-27T06:30:32.669Z,39.13
2019-01-27T06:33:19.777Z,46.70
2019-01-27T06:35:49.831Z,42.53
2019-01-27T06:38:18.200Z,41.18
2019-01-27T06:40:48.068Z,35.00
2019-01-27T06:43:16.518Z,40.80
2019-01-27T06:45:46.336Z,40.35
2019-01-27T06:48:14.813Z,42.88
2019-01-27T06:50:43.485Z,43.48
2019-01-27T06:53:11.847Z,41.60
2019-01-27T06:55:40.367Z,36.25
2019-01-27T06:58:10.050Z,42.62
2019-01-27T07:01:02.708Z,32.67
2019-01-27T07:03:53.451Z,37.23
2019-01-27T07:06:45.262Z,35.00
2019-01-27T07:09:27.522Z,35.48
2019-01-27T07:12:20.228Z,33.63
2019-01-27T07:15:01.414Z,36.17
2019-01-27T07:18:02.074Z,34.35
2019-01-27T07:20:56.253Z,38.65
2019-01-27T07:23:35.889Z,36.85
2019-01-27T07:26:24.214Z,39.90
2019-01-27T07:29:21.624Z,39.05
2019-01-27T07:32:21.639Z,37.85
2019-01-27T07:35:21.783Z,37.48
2019-01-27T07:38:18.769Z,41.90
2019-01-27T07:40:59.532Z,52.40
2019-01-27T07:43:50.649Z,48.85
2019-01-27T07:46:45.334Z,45.65
2019-01-27T07:49:25.102Z,36.20
2019-01-27T07:52:22.739Z,39.95
2019-01-27T07:55:09.549Z,43.85
2019-01-27T07:57:45.969Z,44.30
2019-01-27T08:00:29.453Z,36.08
2019-01-27T08:03:14.272Z,43.58
2019-01-27T08:05:52.129Z,42.48
2019-01-27T08:08:39.149Z,51.02
2019-01-27T08:11:33.291Z,49.73
2019-01-27T08:14:13.407Z,43.87
2019-01-27T08:17:10.871Z,44.65
2019-01-27T08:19:45.816Z,43.02
2019-01-27T08:22:40.027Z,46.98
2019-01-27T08:25:34.565Z,46.83
2019-01-27T08:28:29.001Z,45.50
2019-01-27T08:31:28.019Z,50.30
2019-01-27T08:34:02.366Z,48.15
2019-01-27T08:36:42.335Z,48.17
2019-01-27T08:39:17.609Z,42.93
2019-01-27T08:42:04.599Z,49.67
2019-01-27T08:44:49.019Z,45.38
2019-01-27T08:47:17.458Z,49.60
2019-01-27T08:49:45.812Z,44.90
2019-01-27T08:52:14.276Z,42.95
2019-01-27T08:54:42.656Z,48.60
2019-01-27T08:57:12.824Z,38.15
2019-01-27T08:59:43.006Z,44.18
2019-01-27T09:02:46.511Z,36.55
2019-01-27T09:05:31.038Z,47.17
2019-01-27T09:08:22.073Z,42.80
2019-01-27T09:11:17.321Z,55.35
2019-01-27T09:14:12.016Z,47.33
2019-01-27T09:17:18.282Z,48.78
2019-01-27T09:20:00.475Z,46.30
2019-01-27T09:22:48.776Z,44.10
2019-01-27T09:25:37.757Z,45.03
2019-01-27T09:28:15.556Z,53.65
2019-01-27T09:31:12.444Z,52.08
2019-01-27T09:34:13.342Z,51.50
2019-01-27T09:36:58.706Z,51.08
2019-01-27T09:39:47.413Z,49.93
2019-01-27T09:42:32.132Z,46.18
2019-01-27T09:45:20.114Z,54.60
2019-01-27T09:48:23.173Z,51.42
2019-01-27T09:51:04.462Z,49.65
2019-01-27T09:54:01.383Z,49.63
2019-01-27T09:56:42.171Z,48.98
2019-01-27T09:59:25.063Z,52.23
2019-01-27T10:02:07.186Z,47.40
2019-01-27T10:04:47.141Z,56.75
2019-01-27T10:07:35.763Z,58.13
2019-01-27T10:10:16.440Z,66.62
2019-01-27T10:13:14.031Z,54.75
2019-01-27T10:15:59.376Z,62.73
2019-01-27T10:18:46.204Z,54.27
2019-01-27T10:21:40.474Z,57.48
2019-01-27T10:24:27.313Z,59.03
2019-01-27T10:27:06.009Z,58.42
2019-01-27T10:29:46.177Z,54.73
2019-01-27T10:32:24.164Z,57.08
2019-01-27T10:35:24.415Z,56.48
2019-01-27T10:38:28.469Z,60.58
2019-01-27T10:41:02.741Z,62.27
2019-01-27T10:43:56.524Z,59.77
2019-01-27T10:46:43.409Z,76.07
2019-01-27T10:49:24.800Z,59.03
2019-01-27T10:52:09.011Z,58.78
2019-01-27T10:54:46.132Z,58.48
2019-01-27T10:57:42.509Z,58.85
2019-01-27T11:00:29.850Z,55.10
2019-01-27T11:03:16.831Z,60.63
2019-01-27T11:06:07.596Z,57.62
2019-01-27T11:09:11.088Z,59.33
2019-01-27T11:11:57.861Z,64.42
2019-01-27T11:14:48.606Z,57.05
2019-01-27T11:17:24.677Z,54.03
2019-01-27T11:20:08.430Z,54.20
2019-01-27T11:22:47.299Z,56.02
2019-01-27T11:25:38.512Z,55.65
2019-01-27T11:28:24.356Z,55.60
2019-01-27T11:31:12.601Z,60.15
2019-01-27T11:34:06.390Z,64.50
2019-01-27T11:37:12.881Z,53.13
2019-01-27T11:40:14.829Z,58.20
2019-01-27T11:42:53.942Z,52.78
2019-01-27T11:45:35.207Z,57.62
2019-01-27T11:48:19.662Z,52.20
2019-01-27T11:51:10.472Z,62.75
2019-01-27T11:53:38.839Z,55.83
2019-01-27T11:56:07.236Z,69.27
2019-01-27T11:58:36.704Z,54.65
2019-01-27T12:01:05.675Z,59.93
2019-01-27T12:03:34.384Z,62.08
2019-01-27T12:06:02.925Z,63.33
2019-01-27T12:08:31.321Z,47.80
2019-01-27T12:10:59.688Z,47.10
2019-01-27T12:13:28.062Z,56.30
2019-01-27T12:15:56.742Z,52.73
2019-01-27T12:18:25.205Z,49.77
2019-01-27T12:20:55.416Z,66.72
2019-01-27T12:23:23.881Z,65.15
2019-01-27T12:25:53.452Z,62.27
2019-01-27T12:28:21.823Z,56.10
2019-01-27T12:30:50.217Z,49.95
2019-01-27T12:33:18.586Z,55.10
2019-01-27T12:35:47.082Z,57.05
2019-01-27T12:38:15.443Z,62.23
2019-01-27T12:40:43.824Z,61.00
2019-01-27T12:43:12.191Z,54.10
2019-01-27T12:45:40.659Z,60.35
2019-01-27T12:48:09.118Z,47.88
2019-01-27T12:50:37.862Z,55.83
2019-01-27T12:53:06.232Z,58.95
2019-01-27T12:55:34.640Z,61.65
2019-01-27T12:58:03.312Z,49.90
2019-01-27T13:00:36.663Z,59.85
2019-01-27T13:03:05.333Z,56.08
2019-01-27T13:05:33.804Z,59.58
2019-01-27T13:08:02.157Z,57.05
2019-01-27T13:10:30.556Z,55.40
2019-01-27T13:12:59.494Z,48.02
2019-01-27T13:15:27.926Z,61.73
2019-01-27T13:17:56.450Z,59.18
2019-01-27T13:20:24.924Z,62.50
2019-01-27T13:22:53.644Z,56.80
2019-01-27T13:25:22.574Z,49.10
2019-01-27T13:27:51.399Z,48.65
2019-01-27T13:30:21.856Z,56.28
2019-01-27T13:32:50.211Z,49.88
2019-01-27T13:35:19.802Z,55.85
2019-01-27T13:37:49.518Z,51.35
2019-01-27T13:40:20.461Z,52.25
2019-01-27T13:42:49.084Z,56.15
2019-01-27T13:45:23.599Z,48.30
2019-01-27T13:47:51.961Z,59.73
2019-01-27T13:50:20.336Z,58.63
2019-01-27T13:52:48.704Z,60.03
2019-01-27T13:55:23.157Z,59.42
2019-01-27T13:57:51.521Z,58.05
2019-01-27T14:00:30.872Z,53.23
2019-01-27T14:02:59.472Z,56.02
2019-01-27T14:05:28.031Z,50.83
2019-01-27T14:07:56.999Z,51.30
2019-01-27T14:10:26.827Z,46.00
2019-01-27T14:12:56.718Z,54.10
2019-01-27T14:15:28.222Z,52.93
2019-01-27T14:17:58.395Z,56.92
2019-01-27T14:20:26.956Z,57.40
2019-01-27T14:22:55.531Z,56.90
2019-01-27T14:25:27.764Z,58.78
2019-01-27T14:27:56.354Z,58.30
2019-01-27T14:30:28.597Z,58.63
2019-01-27T14:32:58.465Z,57.67
2019-01-27T14:35:26.863Z,66.53
2019-01-27T14:37:55.859Z,49.88
2019-01-27T14:40:26.720Z,52.67
2019-01-27T14:42:56.088Z,52.73
2019-01-27T14:45:27.056Z,57.35
2019-01-27T14:47:56.765Z,55.25
2019-01-27T14:50:31.442Z,55.08
2019-01-27T14:52:59.824Z,49.53
2019-01-27T14:55:30.173Z,50.38
2019-01-27T14:57:58.556Z,55.12
2019-01-27T15:00:36.397Z,52.83
2019-01-27T15:03:03.729Z,57.70
2019-01-27T15:05:32.107Z,56.83
2019-01-27T15:08:00.589Z,56.40
2019-01-27T15:10:29.259Z,52.78
2019-01-27T15:12:57.851Z,54.13
2019-01-27T15:15:26.237Z,67.32
2019-01-27T15:17:54.612Z,62.85
2019-01-27T15:20:30.070Z,49.58
2019-01-27T15:22:58.540Z,52.30
2019-01-27T15:25:27.287Z,50.95
2019-01-27T15:27:57.465Z,58.98
2019-01-27T15:30:29.025Z,59.13
2019-01-27T15:32:57.633Z,64.45
2019-01-27T15:35:26.047Z,63.90
2019-01-27T15:37:55.308Z,55.28
2019-01-27T15:40:23.793Z,62.80
2019-01-27T15:42:52.163Z,52.85
2019-01-27T15:45:24.100Z,57.58
2019-01-27T15:47:52.566Z,57.67
2019-01-27T15:50:23.928Z,56.48
2019-01-27T15:52:52.396Z,60.20
2019-01-27T15:55:21.079Z,49.90
2019-01-27T15:57:49.463Z,54.70
2019-01-27T16:00:29.652Z,61.15
2019-01-27T16:02:58.345Z,55.35
2019-01-27T16:05:27.111Z,62.65
2019-01-27T16:07:55.587Z,61.05
2019-01-27T16:10:24.131Z,56.53
2019-01-27T16:12:53.472Z,62.13
2019-01-27T16:15:25.548Z,61.42
2019-01-27T16:17:53.914Z,63.78
2019-01-27T16:20:22.714Z,62.58
2019-01-27T16:23:13.660Z,66.17
2019-01-27T16:25:42.316Z,61.85
2019-01-27T16:28:10.877Z,64.20
2019-01-27T16:30:58.093Z,63.98
2019-01-27T16:33:33.898Z,59.55
2019-01-27T16:36:02.687Z,75.47
2019-01-27T16:38:31.207Z,59.95
2019-01-27T16:40:59.752Z,56.18
2019-01-27T16:43:28.103Z,57.50
2019-01-27T16:45:56.880Z,58.95
2019-01-27T16:48:25.814Z,61.15
2019-01-27T16:50:54.160Z,57.70
2019-01-27T16:53:22.563Z,65.32
2019-01-27T16:55:51.129Z,66.72
2019-01-27T16:58:19.915Z,70.83
2019-01-27T17:00:50.944Z,60.70
2019-01-27T17:03:19.718Z,67.92
2019-01-27T17:05:48.390Z,64.62
2019-01-27T17:08:16.969Z,58.98
2019-01-27T17:10:45.523Z,63.78
2019-01-27T17:13:13.896Z,68.85
2019-01-27T17:15:42.437Z,57.00
2019-01-27T17:18:10.823Z,69.50
2019-01-27T17:20:39.408Z,73.50
2019-01-27T17:23:08.106Z,96.45
2019-01-27T17:25:37.744Z,67.40
2019-01-27T17:28:06.330Z,76.10
2019-01-27T17:30:34.953Z,73.07
2019-01-27T17:33:03.761Z,82.17
2019-01-27T17:35:32.467Z,77.05
2019-01-27T17:38:00.970Z,78.05
2019-01-27T17:40:29.370Z,69.00
2019-01-27T17:42:58.767Z,79.50
2019-01-27T17:45:27.442Z,78.33
2019-01-27T17:47:56.152Z,66.00
2019-01-27T17:50:25.036Z,68.83
2019-01-27T17:52:53.524Z,61.65
2019-01-27T17:55:39.433Z,68.72
2019-01-27T17:58:54.324Z,62.73
2019-01-27T18:01:36.571Z,71.12
2019-01-27T18:04:15.482Z,69.85
2019-01-27T18:07:05.397Z,65.15
2019-01-27T18:09:55.246Z,62.80
2019-01-27T18:12:28.780Z,63.65
2019-01-27T18:14:57.150Z,71.07
2019-01-27T18:17:25.563Z,82.72
2019-01-27T18:19:54.175Z,79.67
2019-01-27T18:22:24.324Z,90.62
2019-01-27T18:24:52.822Z,80.67
2019-01-27T18:27:21.401Z,83.52
2019-01-27T18:29:49.961Z,76.07
2019-01-27T18:32:18.920Z,77.78
2019-01-27T18:34:47.268Z,72.03
2019-01-27T18:37:16.057Z,72.27
2019-01-27T18:39:44.824Z,72.75
2019-01-27T18:42:15.285Z,64.17
2019-01-27T18:44:44.005Z,72.97
2019-01-27T18:47:12.490Z,62.13
2019-01-27T18:49:41.233Z,60.48
2019-01-27T18:52:09.610Z,59.35
2019-01-27T18:54:59.380Z,57.78
2019-01-27T18:57:42.669Z,62.43
2019-01-27T19:00:30.233Z,59.33
2019-01-27T19:03:08.165Z,70.10
2019-01-27T19:05:57.845Z,59.33
2019-01-27T19:08:53.294Z,56.60
2019-01-27T19:11:50.238Z,63.42
2019-01-27T19:14:35.634Z,70.37
2019-01-27T19:17:17.328Z,70.03
2019-01-27T19:20:14.864Z,63.15
2019-01-27T19:22:50.992Z,72.05
2019-01-27T19:25:54.059Z,71.90
2019-01-27T19:28:38.092Z,69.58
2019-01-27T19:31:33.946Z,64.30
2019-01-27T19:34:11.302Z,65.10
2019-01-27T19:37:11.673Z,59.98
2019-01-27T19:39:50.341Z,64.72
2019-01-27T19:42:34.520Z,55.10
2019-01-27T19:45:09.826Z,55.60
2019-01-27T19:47:49.302Z,56.77
2019-01-27T19:50:44.948Z,61.60
2019-01-27T19:53:26.155Z,58.55
2019-01-27T19:56:23.348Z,55.92
2019-01-27T19:58:58.554Z,62.75
2019-01-27T20:01:52.957Z,62.43
2019-01-27T20:04:49.647Z,66.07
2019-01-27T20:07:44.001Z,61.50
2019-01-27T20:10:27.418Z,62.33
2019-01-27T20:13:15.725Z,64.00
2019-01-27T20:16:06.692Z,55.45
2019-01-27T20:18:48.418Z,56.05
2019-01-27T20:21:43.589Z,59.03
2019-01-27T20:24:21.525Z,57.23
2019-01-27T20:27:08.338Z,69.45
2019-01-27T20:29:55.281Z,61.70
2019-01-27T20:32:46.475Z,69.62
2019-01-27T20:35:47.540Z,56.02
2019-01-27T20:38:34.135Z,55.85
2019-01-27T20:41:09.947Z,60.25
2019-01-27T20:43:46.583Z,60.20
2019-01-27T20:46:34.763Z,68.00
2019-01-27T20:49:10.887Z,67.32
2019-01-27T20:52:01.170Z,65.00
2019-01-27T20:54:47.839Z,70.25
2019-01-27T20:57:51.444Z,73.35
2019-01-27T21:00:32.454Z,69.50
2019-01-27T21:03:29.770Z,70.60
2019-01-27T21:06:05.903Z,58.95
2019-01-27T21:09:05.942Z,58.15
2019-01-27T21:12:12.913Z,60.00
2019-01-27T21:14:57.851Z,64.07
2019-01-27T21:17:39.367Z,59.45
2019-01-27T21:20:19.373Z,54.93
2019-01-27T21:22:47.820Z,63.48
2019-01-27T21:25:18.113Z,62.70
2019-01-27T21:27:46.506Z,53.68
2019-01-27T21:30:17.147Z,60.20
2019-01-27T21:32:45.859Z,65.32
2019-01-27T21:35:14.413Z,61.23
2019-01-27T21:37:43.136Z,56.90
2019-01-27T21:40:18.434Z,62.08
2019-01-27T21:42:47.800Z,64.77
2019-01-27T21:45:17.044Z,59.45
2019-01-27T21:47:46.210Z,60.43
2019-01-27T21:50:17.481Z,58.80
2019-01-27T21:52:46.250Z,63.58
2019-01-27T21:55:14.745Z,67.15
2019-01-27T21:57:43.104Z,60.70
2019-01-27T22:00:28.611Z,57.67
2019-01-27T22:02:58.134Z,52.55
2019-01-27T22:05:28.423Z,59.40
2019-01-27T22:07:56.800Z,54.00
2019-01-27T22:10:26.963Z,49.27
2019-01-27T22:12:55.337Z,55.23
2019-01-27T22:15:24.877Z,52.08
2019-01-27T22:17:53.340Z,47.73
2019-01-27T22:20:21.697Z,53.23
2019-01-27T22:22:50.148Z,52.08
2019-01-27T22:25:18.900Z,47.85
2019-01-27T22:27:47.265Z,48.35
2019-01-27T22:30:18.649Z,48.17
2019-01-27T22:32:47.224Z,53.30
2019-01-27T22:35:15.802Z,49.58
2019-01-27T22:37:44.165Z,44.25
2019-01-27T22:40:14.186Z,47.98
2019-01-27T22:42:42.669Z,42.85
2019-01-27T22:45:12.733Z,39.53
2019-01-27T22:47:41.095Z,39.95
2019-01-27T22:50:13.537Z,44.90
2019-01-27T22:52:42.232Z,39.40
2019-01-27T22:55:11.166Z,45.40
2019-01-27T22:57:39.619Z,40.15
2019-01-27T23:00:48.767Z,44.15
2019-01-27T23:03:17.287Z,38.40
2019-01-27T23:05:45.840Z,40.00
2019-01-27T23:08:14.322Z,36.83
2019-01-27T23:10:42.682Z,33.13
2019-01-27T23:13:11.144Z,35.55
2019-01-27T23:15:39.561Z,35.70
2019-01-27T23:18:08.317Z,33.70
2019-01-27T23:20:36.800Z,34.98
2019-01-27T23:23:05.347Z,31.52
2019-01-27T23:25:33.904Z,35.40
2019-01-27T23:28:02.258Z,32.67
2019-01-27T23:30:30.620Z,28.15
2019-01-27T23:32:59.069Z,32.05
2019-01-27T23:35:27.511Z,31.75
2019-01-27T23:37:57.085Z,29.30
2019-01-27T23:40:25.562Z,31.17
2019-01-27T23:42:55.714Z,31.45
2019-01-27T23:45:24.112Z,27.65
2019-01-27T23:47:52.476Z,29.40
2019-01-27T23:50:20.977Z,28.20
2019-01-27T23:52:49.415Z,29.20
2019-01-27T23:55:17.819Z,28.47
2019-01-27T23:57:46.277Z,29.65
